Time;durP1;ratioP1;P1;durP2;ratioP2;P2;SDS_P1;SDS_P2;PMS_P1;PMS_P2;Temp;Humidity;BMP_temperature;BMP_pressure;BME280_temperature;BME280_humidity;BME280_pressure;Samples;Min_cycle;Max_cycle;Signal;HPM_P1;HPM_P2
2023/09/17 00:00:57;;;;;;;8.27;3.53;;;;;;;18.87;100.00;101458.75;5081780;28;20032;-72
2023/09/17 00:03:23;;;;;;;5.57;3.45;;;;;;;18.83;100.00;101445.84;5087901;28;20479;-72
2023/09/17 00:05:48;;;;;;;5.68;3.10;;;;;;;18.90;100.00;101455.53;5064386;28;20028;-73
2023/09/17 00:08:14;;;;;;;6.65;3.20;;;;;;;18.90;100.00;101460.16;5088335;28;20395;-72
2023/09/17 00:10:43;;;;;;;7.70;3.30;;;;;;;18.92;100.00;101461.59;5074522;28;20021;-72
2023/09/17 00:13:08;;;;;;;9.82;3.42;;;;;;;18.80;100.00;101444.41;5095701;28;20034;-73
2023/09/17 00:15:34;;;;;;;7.50;3.42;;;;;;;18.88;100.00;101459.59;5079885;28;20039;-72
2023/09/17 00:17:59;;;;;;;5.95;3.30;;;;;;;18.89;100.00;101470.25;5079231;28;20028;-72
2023/09/17 00:20:25;;;;;;;7.15;3.63;;;;;;;18.86;100.00;101472.63;5072953;28;20036;-72
2023/09/17 00:22:50;;;;;;;7.00;3.60;;;;;;;18.78;100.00;101465.66;5077411;28;20037;-72
2023/09/17 00:25:16;;;;;;;6.40;3.38;;;;;;;18.75;100.00;101487.94;5077960;28;20044;-72
2023/09/17 00:27:41;;;;;;;8.02;3.63;;;;;;;18.59;100.00;101481.25;5080088;28;20056;-73
2023/09/17 00:30:09;;;;;;;9.40;3.63;;;;;;;18.61;100.00;101483.72;5096141;28;20029;-73
2023/09/17 00:32:34;;;;;;;6.90;3.42;;;;;;;18.58;100.00;101471.41;5081834;28;20028;-72
2023/09/17 00:34:59;;;;;;;7.93;3.10;;;;;;;18.54;100.00;101462.88;5064184;28;20031;-72
2023/09/17 00:37:25;;;;;;;5.55;3.50;;;;;;;18.68;100.00;101485.28;5097095;28;20044;-72
2023/09/17 00:39:50;;;;;;;5.57;3.75;;;;;;;18.70;100.00;101483.13;5079212;28;20055;-72
2023/09/17 00:42:16;;;;;;;4.68;3.22;;;;;;;18.60;100.00;101480.19;5076818;28;20479;-72
2023/09/17 00:44:41;;;;;;;6.40;3.13;;;;;;;18.67;100.00;101490.97;5076665;28;20067;-72
2023/09/17 00:47:07;;;;;;;5.85;3.90;;;;;;;18.51;100.00;101474.25;5096695;28;20032;-72
2023/09/17 00:49:34;;;;;;;7.18;3.88;;;;;;;18.21;100.00;101457.13;5079263;28;20478;-72
2023/09/17 00:52:03;;;;;;;9.07;3.85;;;;;;;18.25;100.00;101470.06;5078078;28;20031;-72
2023/09/17 00:54:30;;;;;;;7.40;3.80;;;;;;;18.43;100.00;101479.22;5081396;28;20529;-72
2023/09/17 00:56:56;;;;;;;7.50;3.70;;;;;;;18.48;100.00;101482.06;5076435;28;20056;-72
2023/09/17 00:59:21;;;;;;;9.60;3.92;;;;;;;18.50;100.00;101477.19;5078422;28;20024;-72
2023/09/17 01:01:47;;;;;;;6.68;3.45;;;;;;;18.49;100.00;101479.09;5062829;28;20043;-73
2023/09/17 01:04:14;;;;;;;6.70;3.70;;;;;;;18.51;100.00;101467.97;5082316;28;20049;-72
2023/09/17 01:06:40;;;;;;;7.93;3.20;;;;;;;18.49;100.00;101468.22;5106384;28;20031;-72
2023/09/17 01:09:07;;;;;;;7.32;4.10;;;;;;;18.36;100.00;101448.53;5101977;28;20178;-73
2023/09/17 01:11:34;;;;;;;8.43;3.67;;;;;;;18.47;100.00;101466.78;5069522;28;20033;-72
2023/09/17 01:14:07;;;;;;;6.72;4.03;;;;;;;18.39;100.00;101459.78;5087072;28;20029;-72
2023/09/17 01:16:33;;;;;;;5.93;3.37;;;;;;;18.36;100.00;101457.53;5077644;28;20119;-72
2023/09/17 01:18:59;;;;;;;6.13;3.50;;;;;;;18.43;100.00;101466.41;5060801;28;20273;-72
2023/09/17 01:21:41;;;;;;;5.22;3.45;;;;;;;18.38;100.00;101465.47;5077553;28;20033;-73
2023/09/17 01:24:15;;;;;;;8.30;3.63;;;;;;;18.34;100.00;101475.16;5078745;28;20024;-72
2023/09/17 01:26:44;;;;;;;7.32;4.90;;;;;;;18.31;100.00;101473.75;5079130;28;20024;-72
2023/09/17 01:29:13;;;;;;;9.55;4.70;;;;;;;18.18;100.00;101461.19;5077909;28;20028;-72
2023/09/17 01:31:38;;;;;;;7.93;4.90;;;;;;;18.12;100.00;101464.84;5077552;28;20409;-72
2023/09/17 01:34:04;;;;;;;9.95;4.57;;;;;;;18.19;100.00;101479.19;5060744;28;20051;-72
2023/09/17 01:36:35;;;;;;;6.65;4.63;;;;;;;18.20;100.00;101488.16;5077703;28;20435;-72
2023/09/17 01:39:05;;;;;;;9.38;4.60;;;;;;;18.17;100.00;101481.28;5078935;28;20452;-73
2023/09/17 01:41:33;;;;;;;13.73;3.85;;;;;;;18.14;100.00;101480.94;5080761;28;20025;-72
2023/09/17 01:44:00;;;;;;;6.97;3.85;;;;;;;18.06;100.00;101482.09;5073849;28;20051;-72
2023/09/17 01:46:26;;;;;;;6.72;4.15;;;;;;;17.63;100.00;101422.38;5080889;28;20021;-72
2023/09/17 01:48:53;;;;;;;9.88;4.05;;;;;;;17.95;100.00;101483.72;5061955;28;20153;-73
2023/09/17 01:51:18;;;;;;;8.95;4.38;;;;;;;17.93;100.00;101485.00;5079111;28;20020;-73
2023/09/17 01:53:44;;;;;;;8.18;4.22;;;;;;;17.91;100.00;101495.28;5079888;28;20056;-73
2023/09/17 01:56:12;;;;;;;9.85;4.47;;;;;;;17.58;100.00;101480.22;5080390;28;20055;-72
2023/09/17 01:58:37;;;;;;;5.63;3.97;;;;;;;17.48;100.00;101478.06;5080007;28;20037;-73
2023/09/17 02:01:03;;;;;;;7.57;4.70;;;;;;;17.57;100.00;101497.59;5080027;28;20062;-73
2023/09/17 02:03:28;;;;;;;6.93;4.13;;;;;;;17.47;100.00;101497.31;5063287;28;20053;-73
2023/09/17 02:05:54;;;;;;;6.28;4.20;;;;;;;17.48;100.00;101490.81;5081331;28;20039;-72
2023/09/17 02:08:20;;;;;;;7.75;4.30;;;;;;;17.47;100.00;101489.97;5080519;28;20534;-71
2023/09/17 02:10:45;;;;;;;10.73;4.43;;;;;;;17.46;100.00;101498.38;5088326;28;20025;-72
2023/09/17 02:13:10;;;;;;;7.20;4.28;;;;;;;17.43;100.00;101496.13;5081921;28;20534;-72
2023/09/17 02:15:36;;;;;;;7.53;4.07;;;;;;;17.41;100.00;101495.50;5078855;28;20534;-72
2023/09/17 02:18:01;;;;;;;7.00;4.43;;;;;;;17.29;100.00;101501.72;5080882;28;20029;-71
2023/09/17 02:20:27;;;;;;;6.60;4.60;;;;;;;17.25;100.00;101497.78;5085160;28;20079;-72
2023/09/17 02:22:52;;;;;;;8.75;4.90;;;;;;;17.32;100.00;101498.53;5085312;28;20043;-72
2023/09/17 02:25:17;;;;;;;8.48;4.13;;;;;;;17.25;100.00;101505.94;5077297;28;20077;-71
2023/09/17 02:27:43;;;;;;;7.38;4.55;;;;;;;17.24;100.00;101489.84;5060787;28;20024;-72
2023/09/17 02:30:09;;;;;;;6.00;4.53;;;;;;;17.27;100.00;101503.81;5076920;28;20024;-72
2023/09/17 02:32:37;;;;;;;7.70;4.45;;;;;;;17.21;100.00;101510.16;5077337;28;20024;-72
2023/09/17 02:35:04;;;;;;;11.52;4.90;;;;;;;17.16;100.00;101509.19;5061682;28;20027;-72
2023/09/17 02:37:30;;;;;;;7.45;4.25;;;;;;;17.17;100.00;101503.50;5076898;28;20031;-72
2023/09/17 02:39:55;;;;;;;6.32;4.60;;;;;;;17.16;100.00;101514.63;5076432;28;20033;-72
2023/09/17 02:42:21;;;;;;;6.78;4.60;;;;;;;17.26;100.00;101514.94;5091770;28;20483;-71
2023/09/17 02:44:47;;;;;;;9.30;4.80;;;;;;;17.18;100.00;101505.16;5077397;28;20036;-71
2023/09/17 02:47:12;;;;;;;10.55;4.65;;;;;;;17.31;100.00;101528.66;5075287;28;20033;-72
2023/09/17 02:49:37;;;;;;;9.80;4.75;;;;;;;17.33;100.00;101538.28;5082281;28;20074;-72
2023/09/17 02:52:06;;;;;;;8.73;4.75;;;;;;;17.34;100.00;101534.50;5084785;28;20094;-72
2023/09/17 02:54:31;;;;;;;9.05;5.00;;;;;;;17.19;100.00;101528.59;5066730;28;20033;-72
2023/09/17 02:56:58;;;;;;;9.80;4.93;;;;;;;17.21;100.00;101534.63;5065472;28;20105;-71
2023/09/17 02:59:24;;;;;;;7.57;4.65;;;;;;;17.20;100.00;101541.13;5083543;28;20402;-72
2023/09/17 03:01:49;;;;;;;13.35;5.05;;;;;;;17.22;100.00;101544.47;5083797;28;20037;-72
2023/09/17 03:04:14;;;;;;;6.45;4.10;;;;;;;17.14;100.00;101555.63;5083430;28;20067;-72
2023/09/17 03:06:40;;;;;;;7.13;4.10;;;;;;;17.10;100.00;101562.56;5082452;28;20162;-72
2023/09/17 03:09:11;;;;;;;8.07;4.15;;;;;;;16.98;100.00;101567.91;5082071;28;20025;-72
2023/09/17 03:11:37;;;;;;;7.13;4.00;;;;;;;16.54;100.00;101498.22;5082544;28;20467;-72
2023/09/17 03:14:02;;;;;;;7.25;4.10;;;;;;;17.00;100.00;101573.13;5080129;28;20024;-73
2023/09/17 03:16:29;;;;;;;4.97;3.70;;;;;;;16.93;100.00;101569.66;5083186;28;20510;-72
2023/09/17 03:18:55;;;;;;;8.85;4.18;;;;;;;16.59;100.00;101566.34;5083056;28;20024;-72
2023/09/17 03:21:21;;;;;;;11.10;4.40;;;;;;;16.73;100.00;101569.78;5082277;28;20043;-72
2023/09/17 03:23:47;;;;;;;6.25;4.07;;;;;;;16.75;100.00;101576.66;5081520;28;20026;-72
2023/09/17 03:26:12;;;;;;;4.85;3.92;;;;;;;16.63;100.00;101584.69;5080100;28;20028;-72
2023/09/17 03:28:37;;;;;;;7.03;4.07;;;;;;;16.45;100.00;101576.44;5068254;28;20029;-71
2023/09/17 03:31:03;;;;;;;7.75;4.03;;;;;;;16.52;100.00;101576.41;5084637;28;20064;-72
2023/09/17 03:33:29;;;;;;;5.97;4.18;;;;;;;16.59;100.00;101569.06;5082154;28;20035;-72
2023/09/17 03:35:55;;;;;;;6.65;4.68;;;;;;;16.58;100.00;101580.94;5080430;28;20036;-72
2023/09/17 03:38:20;;;;;;;10.02;5.45;;;;;;;16.48;100.00;101581.44;5080355;28;20117;-72
2023/09/17 03:40:46;;;;;;;9.02;5.40;;;;;;;16.47;100.00;101576.25;5079850;28;20052;-72
2023/09/17 03:43:12;;;;;;;8.00;5.05;;;;;;;16.55;100.00;101581.41;5080083;28;20111;-72
2023/09/17 03:45:37;;;;;;;11.48;5.82;;;;;;;16.42;100.00;101574.16;5081354;28;20084;-72
2023/09/17 03:48:04;;;;;;;9.73;5.43;;;;;;;16.43;100.00;101571.25;5079713;28;20060;-72
2023/09/17 03:50:30;;;;;;;8.25;5.57;;;;;;;16.48;100.00;101578.72;5080938;28;20020;-73
2023/09/17 03:52:58;;;;;;;9.00;5.63;;;;;;;16.56;100.00;101580.38;5079753;28;20024;-72
2023/09/17 03:55:24;;;;;;;8.48;5.47;;;;;;;16.59;100.00;101590.78;5079512;28;20039;-72
2023/09/17 03:57:51;;;;;;;12.88;5.63;;;;;;;16.51;100.00;101585.59;5080817;28;20039;-72
2023/09/17 04:00:17;;;;;;;8.35;5.55;;;;;;;16.59;100.00;101585.34;5079494;28;20031;-72
2023/09/17 04:02:44;;;;;;;10.88;5.38;;;;;;;16.60;100.00;101581.56;5083799;28;20032;-72
2023/09/17 04:05:12;;;;;;;8.25;6.10;;;;;;;16.49;100.00;101587.69;5082794;28;20106;-72
2023/09/17 04:07:39;;;;;;;9.85;5.50;;;;;;;16.51;100.00;101591.03;5082671;28;20040;-71
2023/09/17 04:10:06;;;;;;;8.65;4.85;;;;;;;16.47;100.00;101598.78;5083501;28;20020;-72
2023/09/17 04:12:32;;;;;;;12.90;5.65;;;;;;;16.44;100.00;101600.06;5082027;28;20043;-72
2023/09/17 04:14:57;;;;;;;8.45;5.43;;;;;;;16.51;100.00;101605.44;5082572;28;20064;-73
2023/09/17 04:17:23;;;;;;;10.35;5.30;;;;;;;16.42;100.00;101594.03;5078317;28;20082;-72
2023/09/17 04:19:50;;;;;;;11.10;5.35;;;;;;;16.38;100.00;101616.41;5075624;28;20040;-72
2023/09/17 04:22:16;;;;;;;6.82;5.50;;;;;;;16.41;100.00;101608.66;5081361;28;20059;-72
2023/09/17 04:24:42;;;;;;;8.25;5.22;;;;;;;16.38;100.00;101603.66;5082748;28;20054;-72
2023/09/17 04:27:08;;;;;;;9.15;5.30;;;;;;;16.43;100.00;101603.84;5063814;28;20040;-72
2023/09/17 04:29:34;;;;;;;11.15;5.28;;;;;;;16.47;100.00;101597.97;5078911;28;20032;-72
2023/09/17 04:31:59;;;;;;;7.15;5.15;;;;;;;16.45;100.00;101600.88;5079265;28;20043;-72
2023/09/17 04:34:25;;;;;;;8.82;5.43;;;;;;;16.35;100.00;101595.94;5085696;28;20051;-72
2023/09/17 04:36:51;;;;;;;6.55;4.93;;;;;;;16.29;100.00;101607.69;5085098;28;20032;-72
2023/09/17 04:39:16;;;;;;;11.68;5.15;;;;;;;16.36;100.00;101613.09;5080295;28;20088;-72
2023/09/17 04:41:42;;;;;;;6.43;4.95;;;;;;;16.24;100.00;101615.66;5082477;28;20035;-72
2023/09/17 04:44:10;;;;;;;8.73;5.32;;;;;;;16.29;100.00;101615.84;5082652;28;20115;-73
2023/09/17 04:46:40;;;;;;;7.85;5.35;;;;;;;16.21;100.00;101613.34;5083439;28;20032;-72
2023/09/17 04:49:06;;;;;;;9.23;5.13;;;;;;;16.28;100.00;101616.03;5082031;28;20031;-72
2023/09/17 04:51:33;;;;;;;7.72;5.40;;;;;;;16.25;100.00;101622.72;5081644;28;20066;-72
2023/09/17 04:53:59;;;;;;;7.32;4.95;;;;;;;16.26;100.00;101621.72;5082741;28;20100;-72
2023/09/17 04:56:24;;;;;;;6.50;4.47;;;;;;;16.12;100.00;101622.78;5090842;28;20052;-70
2023/09/17 04:58:50;;;;;;;12.35;5.03;;;;;;;16.24;100.00;101631.09;5092900;28;20505;-71
2023/09/17 05:01:15;;;;;;;6.03;4.85;;;;;;;16.18;100.00;101627.38;5082128;28;20483;-71
2023/09/17 05:03:42;;;;;;;6.05;4.60;;;;;;;16.06;100.00;101623.66;5076671;28;20053;-71
2023/09/17 05:06:10;;;;;;;8.55;5.07;;;;;;;16.22;100.00;101634.03;5078032;28;20025;-71
2023/09/17 05:08:35;;;;;;;6.88;4.43;;;;;;;16.24;100.00;101639.25;5064511;28;20032;-71
2023/09/17 05:11:01;;;;;;;11.55;4.88;;;;;;;16.08;100.00;101640.56;5081469;28;20036;-72
2023/09/17 05:13:26;;;;;;;10.25;4.70;;;;;;;16.33;100.00;101646.94;5062151;28;20028;-68
2023/09/17 05:15:51;;;;;;;8.52;4.47;;;;;;;16.38;100.00;101651.72;5062611;28;20032;-72
2023/09/17 05:18:17;;;;;;;5.90;4.03;;;;;;;16.41;100.00;101656.72;5063630;28;20024;-72
2023/09/17 05:20:43;;;;;;;10.02;4.50;;;;;;;16.37;100.00;101659.03;5060574;28;20028;-72
2023/09/17 05:23:10;;;;;;;4.68;3.95;;;;;;;16.12;100.00;101656.22;5080165;28;20017;-70
2023/09/17 05:25:36;;;;;;;6.88;3.95;;;;;;;16.16;100.00;101665.63;5081332;28;20031;-72
2023/09/17 05:28:06;;;;;;;5.75;3.60;;;;;;;16.00;100.00;101659.84;5060760;28;20024;-69
2023/09/17 05:30:34;;;;;;;7.15;3.85;;;;;;;16.06;100.00;101672.53;5056221;28;20111;-68
2023/09/17 05:32:59;;;;;;;5.05;3.28;;;;;;;16.00;100.00;101665.25;5060338;28;20064;-70
2023/09/17 05:35:25;;;;;;;5.32;3.55;;;;;;;16.07;100.00;101682.34;5064097;28;20125;-71
2023/09/17 05:37:50;;;;;;;5.40;3.33;;;;;;;16.18;100.00;101684.38;5085746;28;20551;-72
2023/09/17 05:40:16;;;;;;;6.85;3.17;;;;;;;16.29;100.00;101688.31;5062008;28;20070;-72
2023/09/17 05:42:43;;;;;;;8.57;3.10;;;;;;;16.26;100.00;101694.16;5061293;28;20037;-72
2023/09/17 05:45:09;;;;;;;5.35;2.80;;;;;;;16.15;100.00;101673.97;5079015;28;20028;-72
2023/09/17 05:47:34;;;;;;;4.22;3.25;;;;;;;16.40;100.00;101695.81;5061443;28;20031;-72
2023/09/17 05:50:00;;;;;;;4.20;2.20;;;;;;;16.33;100.00;101695.00;5061795;28;20084;-72
2023/09/17 05:52:25;;;;;;;5.25;2.38;;;;;;;16.43;100.00;101704.34;5057337;28;20029;-72
2023/09/17 05:54:51;;;;;;;2.83;2.10;;;;;;;16.37;100.00;101712.53;5057767;28;20093;-72
2023/09/17 05:57:35;;;;;;;3.40;2.20;;;;;;;16.43;100.00;101712.50;5055925;28;20088;-72
2023/09/17 06:00:04;;;;;;;5.07;2.10;;;;;;;16.28;100.00;101694.81;5048463;28;20048;-72
2023/09/17 06:02:31;;;;;;;2.72;2.03;;;;;;;16.52;100.00;101710.34;5077784;28;20123;-72
2023/09/17 06:04:56;;;;;;;4.40;2.05;;;;;;;16.41;100.00;101703.72;5060473;28;20110;-72
2023/09/17 06:07:22;;;;;;;2.78;1.90;;;;;;;16.35;100.00;101712.72;5060845;28;20028;-72
2023/09/17 06:09:48;;;;;;;2.42;2.00;;;;;;;16.25;100.00;101715.06;5063708;28;20020;-71
2023/09/17 06:12:15;;;;;;;4.13;2.50;;;;;;;16.01;100.00;101726.63;5055506;28;20032;-72
2023/09/17 06:14:41;;;;;;;4.35;2.20;;;;;;;16.17;100.00;101732.44;5090993;28;20040;-72
2023/09/17 06:17:07;;;;;;;3.83;2.30;;;;;;;16.10;100.00;101728.09;5092268;28;20043;-72
2023/09/17 06:19:33;;;;;;;2.38;2.00;;;;;;;16.25;100.00;101727.81;5071958;28;20024;-72
2023/09/17 06:21:59;;;;;;;3.47;2.00;;;;;;;16.30;100.00;101728.03;5090845;28;20059;-72
2023/09/17 06:24:24;;;;;;;3.92;1.95;;;;;;;16.48;100.00;101733.56;5091511;28;20032;-72
2023/09/17 06:26:50;;;;;;;3.83;2.00;;;;;;;16.54;100.00;101740.03;5084008;28;20102;-72
2023/09/17 06:29:16;;;;;;;2.55;1.85;;;;;;;16.02;100.00;101718.28;5081774;28;20043;-73
2023/09/17 06:31:42;;;;;;;4.43;1.88;;;;;;;16.05;100.00;101736.84;5044080;28;20024;-68
2023/09/17 06:34:09;;;;;;;3.28;1.80;;;;;;;16.27;100.00;101723.00;5082581;28;20461;-73
2023/09/17 06:36:38;;;;;;;2.67;1.70;;;;;;;16.40;100.00;101741.97;5072102;28;20028;-72
2023/09/17 06:39:05;;;;;;;1.65;1.55;;;;;;;16.47;100.00;101733.81;5066659;28;20032;-72
2023/09/17 06:41:31;;;;;;;3.53;2.10;;;;;;;16.43;100.00;101744.25;5048147;28;20055;-72
2023/09/17 06:43:57;;;;;;;2.67;2.05;;;;;;;16.44;100.00;101738.59;5065850;28;20024;-72
2023/09/17 06:46:24;;;;;;;2.58;1.98;;;;;;;16.17;100.00;101745.19;5068532;28;20055;-71
2023/09/17 06:48:50;;;;;;;2.38;1.88;;;;;;;16.35;100.00;101741.78;5048531;28;20033;-74
2023/09/17 06:51:15;;;;;;;3.08;2.30;;;;;;;16.37;100.00;101750.56;5060993;28;20113;-71
2023/09/17 06:53:41;;;;;;;3.90;2.30;;;;;;;16.37;100.00;101748.66;5077315;28;20036;-73
2023/09/17 06:56:08;;;;;;;3.03;2.47;;;;;;;16.60;100.00;101764.47;5049698;28;20036;-70
2023/09/17 06:58:34;;;;;;;2.33;2.05;;;;;;;16.46;100.00;101752.00;5062420;28;20089;-71
2023/09/17 07:01:00;;;;;;;4.22;2.60;;;;;;;16.28;100.00;101766.25;5062140;28;20025;-72
2023/09/17 07:03:25;;;;;;;6.63;2.72;;;;;;;16.45;100.00;101761.16;5065660;28;20044;-72
2023/09/17 07:05:51;;;;;;;5.10;2.70;;;;;;;16.19;100.00;101754.78;5065159;28;20039;-72
2023/09/17 07:08:16;;;;;;;3.05;2.47;;;;;;;16.45;100.00;101770.16;5081015;28;20025;-76
2023/09/17 07:10:43;;;;;;;9.02;2.40;;;;;;;16.44;100.00;101757.63;5044796;28;20078;-73
2023/09/17 07:13:09;;;;;;;5.32;2.92;;;;;;;16.39;100.00;101776.47;5057044;28;20032;-73
2023/09/17 07:15:35;;;;;;;3.88;2.50;;;;;;;16.41;100.00;101774.34;5061528;28;20069;-72
2023/09/17 07:18:00;;;;;;;4.05;2.65;;;;;;;16.53;100.00;101758.22;5058043;28;20111;-70
2023/09/17 07:20:26;;;;;;;3.67;2.80;;;;;;;16.69;100.00;101775.94;5044871;28;20063;-70
2023/09/17 07:22:51;;;;;;;2.88;2.30;;;;;;;16.77;100.00;101780.31;5062754;28;20038;-71
2023/09/17 07:25:16;;;;;;;6.82;2.50;;;;;;;16.82;100.00;101786.78;5060463;28;20482;-70
2023/09/17 07:27:42;;;;;;;2.40;2.20;;;;;;;16.77;100.00;101781.13;5057660;28;20086;-71
2023/09/17 07:30:08;;;;;;;3.70;2.40;;;;;;;17.04;100.00;101787.25;5078399;28;20128;-70
2023/09/17 07:32:33;;;;;;;4.88;2.50;;;;;;;16.94;100.00;101780.63;5084065;28;20107;-71
2023/09/17 07:35:02;;;;;;;2.63;2.10;;;;;;;16.81;100.00;101790.53;5064908;28;20036;-70
2023/09/17 07:37:27;;;;;;;4.15;2.50;;;;;;;17.05;100.00;101802.56;5086319;28;20499;-70
2023/09/17 07:39:58;;;;;;;3.10;2.20;;;;;;;17.21;100.00;101798.44;5087510;28;20035;-70
2023/09/17 07:42:23;;;;;;;5.43;2.53;;;;;;;16.90;100.00;101805.53;5092222;28;20102;-71
2023/09/17 07:44:49;;;;;;;2.95;2.17;;;;;;;17.11;100.00;101807.09;5076619;28;20024;-71
2023/09/17 07:47:16;;;;;;;4.18;2.40;;;;;;;17.53;100.00;101812.06;5087419;28;20442;-71
2023/09/17 07:49:42;;;;;;;3.10;2.15;;;;;;;17.36;100.00;101806.31;5067629;28;20031;-71
2023/09/17 07:52:07;;;;;;;4.15;2.28;;;;;;;17.23;100.00;101815.41;5053438;28;20048;-71
2023/09/17 07:54:38;;;;;;;2.72;2.00;;;;;;;17.44;100.00;101813.38;5057911;28;20152;-70
2023/09/17 07:57:04;;;;;;;3.53;2.00;;;;;;;17.42;100.00;101802.72;5076843;28;20396;-71
2023/09/17 07:59:30;;;;;;;3.83;2.17;;;;;;;17.70;100.00;101815.91;5059933;28;20055;-71
2023/09/17 08:01:56;;;;;;;3.72;1.90;;;;;;;17.87;100.00;101810.75;5060679;28;20029;-71
2023/09/17 08:04:22;;;;;;;2.90;1.70;;;;;;;17.56;100.00;101826.06;5072943;28;20129;-71
2023/09/17 08:06:48;;;;;;;2.58;1.80;;;;;;;17.60;100.00;101829.19;5062217;28;20119;-71
2023/09/17 08:09:14;;;;;;;3.15;1.60;;;;;;;17.74;99.89;101828.00;5051570;28;20423;-71
2023/09/17 08:11:40;;;;;;;4.47;1.70;;;;;;;17.61;99.77;101823.53;5053033;28;20086;-71
2023/09/17 08:14:05;;;;;;;2.45;1.40;;;;;;;17.57;100.00;101829.63;5061486;28;20391;-71
2023/09/17 08:16:31;;;;;;;3.70;1.50;;;;;;;17.67;99.53;101829.94;5107405;28;20034;-71
2023/09/17 08:18:57;;;;;;;3.85;1.70;;;;;;;17.54;99.22;101811.00;5082742;28;20032;-70
2023/09/17 08:21:23;;;;;;;3.63;1.63;;;;;;;17.78;98.58;101822.97;5084476;28;20146;-71
2023/09/17 08:23:49;;;;;;;3.47;1.55;;;;;;;17.50;99.95;101826.09;5082427;28;20100;-71
2023/09/17 08:26:14;;;;;;;2.75;1.40;;;;;;;17.46;98.34;101816.72;5061364;28;20150;-71
2023/09/17 08:28:43;;;;;;;2.03;1.38;;;;;;;17.67;99.06;101824.50;5085736;28;20058;-71
2023/09/17 08:31:09;;;;;;;2.22;1.20;;;;;;;17.52;96.94;101805.78;5084486;28;20024;-72
2023/09/17 08:33:35;;;;;;;4.65;1.52;;;;;;;17.45;99.33;101821.34;5082633;28;20021;-71
2023/09/17 08:36:02;;;;;;;2.65;1.33;;;;;;;17.36;98.59;101823.47;5083342;28;20024;-71
2023/09/17 08:38:29;;;;;;;3.80;1.20;;;;;;;17.52;98.25;101824.00;5047560;28;20082;-71
2023/09/17 08:40:57;;;;;;;1.63;1.33;;;;;;;17.92;96.38;101831.91;5065831;28;20029;-71
2023/09/17 08:43:23;;;;;;;1.85;1.40;;;;;;;18.06;94.61;101834.25;5069801;28;20032;-71
2023/09/17 08:45:50;;;;;;;4.22;1.50;;;;;;;17.98;93.81;101830.97;5073165;28;20040;-70
2023/09/17 08:48:17;;;;;;;2.25;1.30;;;;;;;17.95;94.18;101836.91;5083192;28;20043;-71
2023/09/17 08:50:50;;;;;;;1.23;1.10;;;;;;;17.71;93.88;101814.84;5053240;28;20025;-71
2023/09/17 08:53:21;;;;;;;2.70;1.17;;;;;;;17.56;94.67;101836.13;5058713;28;20029;-71
2023/09/17 08:55:54;;;;;;;3.35;1.10;;;;;;;17.31;96.76;101828.72;5057457;28;20050;-71
2023/09/17 08:58:25;;;;;;;1.70;1.17;;;;;;;17.67;96.98;101842.72;5059528;28;20020;-71
2023/09/17 09:00:55;;;;;;;2.90;1.35;;;;;;;17.74;96.23;101840.78;5056921;28;20041;-71
2023/09/17 09:03:23;;;;;;;2.42;1.50;;;;;;;17.77;95.19;101843.94;5010150;28;1276865;-71
2023/09/17 09:05:50;;;;;;;3.13;1.50;;;;;;;17.98;93.90;101848.19;5058815;28;20034;-71
2023/09/17 09:08:17;;;;;;;1.83;1.55;;;;;;;17.94;93.84;101843.38;5045535;28;20478;-71
2023/09/17 09:10:43;;;;;;;1.45;1.30;;;;;;;18.04;93.84;101849.16;5058834;28;20031;-71
2023/09/17 09:13:09;;;;;;;2.10;1.60;;;;;;;17.81;93.50;101852.47;5042146;28;20100;-71
2023/09/17 09:15:35;;;;;;;2.40;1.40;;;;;;;17.78;93.23;101861.09;5059739;28;20037;-71
2023/09/17 09:18:00;;;;;;;3.40;1.50;;;;;;;17.75;93.61;101851.47;5059708;28;20388;-71
2023/09/17 09:20:26;;;;;;;2.50;1.65;;;;;;;17.95;92.82;101861.41;5040490;28;20041;-71
2023/09/17 09:22:51;;;;;;;2.58;1.48;;;;;;;18.23;91.13;101848.13;5037261;28;20107;-70
2023/09/17 09:25:18;;;;;;;3.03;1.60;;;;;;;18.54;89.52;101860.81;5039062;28;20088;-71
2023/09/17 09:27:44;;;;;;;2.75;1.60;;;;;;;18.20;90.11;101864.94;5045316;28;20032;-71
2023/09/17 09:30:11;;;;;;;2.58;1.60;;;;;;;18.36;90.71;101859.97;5061600;28;20100;-71
2023/09/17 09:32:37;;;;;;;2.88;1.23;;;;;;;18.55;89.94;101850.75;5064345;28;20505;-70
2023/09/17 09:35:04;;;;;;;2.03;1.30;;;;;;;18.13;90.55;101853.25;5061529;28;20025;-71
2023/09/17 09:37:30;;;;;;;2.60;1.40;;;;;;;18.27;90.78;101860.25;5062999;28;20108;-71
2023/09/17 09:39:56;;;;;;;1.73;1.20;;;;;;;18.62;90.05;101846.06;5045769;28;20049;-71
2023/09/17 09:42:23;;;;;;;1.55;1.30;;;;;;;18.78;89.19;101845.47;5061603;28;20025;-71
2023/09/17 09:44:51;;;;;;;1.85;1.20;;;;;;;18.56;88.94;101855.13;5045036;28;20033;-70
2023/09/17 09:47:16;;;;;;;1.23;1.00;;;;;;;18.28;89.84;101861.94;5062832;28;20029;-71
2023/09/17 09:49:46;;;;;;;2.05;1.10;;;;;;;18.27;89.33;101859.41;5058768;28;20067;-71
2023/09/17 09:52:14;;;;;;;3.65;1.00;;;;;;;18.66;88.27;101857.34;5043346;28;20127;-70
2023/09/17 09:54:40;;;;;;;1.73;0.90;;;;;;;18.64;87.94;101849.41;5061640;28;20020;-71
2023/09/17 09:57:06;;;;;;;2.47;1.00;;;;;;;18.73;87.01;101852.66;5063754;28;20033;-70
2023/09/17 09:59:36;;;;;;;1.45;1.00;;;;;;;18.98;85.35;101861.59;5048078;28;20036;-70
2023/09/17 10:02:03;;;;;;;1.30;1.02;;;;;;;18.83;85.80;101858.41;5060659;28;20029;-71
2023/09/17 10:04:29;;;;;;;1.65;1.10;;;;;;;18.56;86.10;101855.13;5058227;28;20067;-71
2023/09/17 10:06:56;;;;;;;2.75;1.20;;;;;;;18.71;85.19;101839.25;5064403;28;20036;-71
2023/09/17 10:09:24;;;;;;;1.05;0.88;;;;;;;18.93;84.50;101857.88;5047422;28;20446;-71
2023/09/17 10:11:49;;;;;;;1.42;0.93;;;;;;;18.88;85.02;101865.94;5069184;28;20444;-70
2023/09/17 10:14:15;;;;;;;2.75;1.02;;;;;;;18.95;84.34;101853.88;5049324;28;20382;-71
2023/09/17 10:16:40;;;;;;;2.25;0.90;;;;;;;19.00;84.83;101855.88;5050879;28;20032;-70
2023/09/17 10:19:07;;;;;;;1.52;1.10;;;;;;;19.04;83.86;101837.16;5048792;28;20464;-71
2023/09/17 10:21:37;;;;;;;1.83;1.10;;;;;;;19.82;81.34;101855.38;5048650;28;20825;-71
2023/09/17 10:24:03;;;;;;;4.32;1.02;;;;;;;19.56;80.97;101835.56;5067381;28;20031;-70
2023/09/17 10:26:37;;;;;;;3.25;1.10;;;;;;;19.75;81.00;101857.38;5064973;28;20059;-71
2023/09/17 10:29:04;;;;;;;1.17;1.00;;;;;;;19.67;80.63;101847.63;5066187;28;20055;-71
2023/09/17 10:31:30;;;;;;;4.18;1.10;;;;;;;19.75;80.48;101854.66;5059712;28;20494;-71
2023/09/17 10:33:59;;;;;;;1.27;1.00;;;;;;;19.87;80.33;101855.50;5048076;28;20029;-70
2023/09/17 10:36:25;;;;;;;1.98;1.10;;;;;;;19.24;81.91;101865.88;5070834;28;20491;-70
2023/09/17 10:38:54;;;;;;;1.38;1.08;;;;;;;19.17;81.93;101837.84;5071184;28;20041;-70
2023/09/17 10:41:22;;;;;;;4.38;1.00;;;;;;;19.03;81.86;101858.16;5070840;28;20025;-72
2023/09/17 10:43:49;;;;;;;3.85;1.13;;;;;;;19.51;81.21;101856.47;5067553;28;20425;-71
2023/09/17 10:46:16;;;;;;;2.53;0.93;;;;;;;19.76;79.67;101854.41;5084077;28;20395;-71
2023/09/17 10:48:43;;;;;;;3.70;1.00;;;;;;;19.35;81.26;101856.06;5067471;28;20033;-71
2023/09/17 10:51:09;;;;;;;3.58;1.20;;;;;;;19.28;81.63;101857.22;5066728;28;20025;-73
2023/09/17 10:53:34;;;;;;;1.30;0.70;;;;;;;19.69;80.64;101862.69;5060930;28;20044;-72
2023/09/17 10:56:07;;;;;;;1.33;0.95;;;;;;;19.64;78.95;101848.09;5043954;28;20039;-74
2023/09/17 10:58:53;;;;;;;1.75;0.90;;;;;;;19.55;78.36;101868.59;5061264;28;20084;-70
2023/09/17 11:01:30;;;;;;;4.30;0.90;;;;;;;19.48;80.15;101865.94;5088993;28;20133;-72
2023/09/17 11:04:03;;;;;;;3.10;0.80;;;;;;;19.55;80.20;101852.19;5088170;28;20048;-70
2023/09/17 11:06:34;;;;;;;2.90;0.90;;;;;;;19.83;79.84;101848.84;5065462;28;20031;-75
2023/09/17 11:09:00;;;;;;;3.90;1.02;;;;;;;20.04;78.83;101839.25;5082642;28;20027;-76
2023/09/17 11:11:29;;;;;;;0.60;0.60;;;;;;;20.02;78.95;101847.66;5049705;28;20020;-72
2023/09/17 11:13:55;;;;;;;3.10;1.10;;;;;;;20.10;78.50;101830.94;5084607;28;20034;-71
2023/09/17 11:16:23;;;;;;;0.80;0.70;;;;;;;20.16;78.19;101843.66;5072047;28;20029;-71